createdAt,value
2023-03-22T00:00:39.555Z,15.13
2023-03-22T00:03:42.659Z,16.13
2023-03-22T00:06:45.762Z,15.52
2023-03-22T00:09:48.706Z,16.70
2023-03-22T00:12:53.130Z,14.55
2023-03-22T00:15:57.728Z,14.70
2023-03-22T00:19:00.593Z,14.30
2023-03-22T00:22:06.283Z,15.10
2023-03-22T00:25:09.571Z,17.67
2023-03-22T00:28:14.610Z,12.98
2023-03-22T00:31:17.711Z,13.85
2023-03-22T00:34:20.662Z,13.25
2023-03-22T00:37:23.512Z,14.57
2023-03-22T00:40:26.375Z,13.80
2023-03-22T00:43:30.619Z,13.98
2023-03-22T00:46:33.552Z,12.45
2023-03-22T00:49:37.590Z,14.43
2023-03-22T00:52:40.496Z,16.15
2023-03-22T00:55:43.824Z,13.77
2023-03-22T00:58:48.266Z,11.90
2023-03-22T01:01:51.214Z,11.73
2023-03-22T01:04:54.195Z,13.32
2023-03-22T01:07:58.606Z,13.30
2023-03-22T01:11:02.047Z,12.40
2023-03-22T01:14:06.229Z,12.60
2023-03-22T01:17:09.379Z,13.00
2023-03-22T01:20:13.758Z,11.95
2023-03-22T01:23:16.810Z,11.70
2023-03-22T01:26:19.691Z,12.02
2023-03-22T01:29:24.061Z,12.57
2023-03-22T01:32:27.039Z,10.60
2023-03-22T01:35:30.764Z,11.32
2023-03-22T01:38:33.896Z,11.43
2023-03-22T01:41:38.614Z,12.50
2023-03-22T01:45:21.342Z,11.70
2023-03-22T01:48:29.320Z,12.13
2023-03-22T01:51:32.339Z,10.73
2023-03-22T01:54:53.811Z,12.55
2023-03-22T01:58:08.703Z,11.50
2023-03-22T02:01:27.309Z,10.98
2023-03-22T02:04:36.761Z,11.05
2023-03-22T02:07:43.177Z,10.98
2023-03-22T02:10:46.821Z,11.38
2023-03-22T02:14:15.625Z,11.45
2023-03-22T02:17:51.178Z,12.05
2023-03-22T02:21:32.073Z,10.43
2023-03-22T02:25:20.629Z,13.27
2023-03-22T02:28:34.659Z,11.05
2023-03-22T02:31:51.750Z,11.13
2023-03-22T02:35:28.844Z,10.23
2023-03-22T02:39:01.513Z,10.40
2023-03-22T02:42:17.479Z,11.55
2023-03-22T02:45:29.155Z,10.27
2023-03-22T02:48:37.973Z,10.60
2023-03-22T02:51:45.269Z,10.38
2023-03-22T02:54:53.608Z,10.35
2023-03-22T02:57:59.242Z,8.95
2023-03-22T03:01:06.775Z,9.90
2023-03-22T03:04:15.196Z,9.73
2023-03-22T03:07:22.825Z,10.10
2023-03-22T03:10:28.723Z,10.38
2023-03-22T03:13:31.965Z,10.93
2023-03-22T03:16:36.673Z,9.70
2023-03-22T03:19:46.324Z,8.82
2023-03-22T03:22:59.230Z,9.40
2023-03-22T03:26:08.270Z,8.88
2023-03-22T03:29:18.699Z,8.85
2023-03-22T03:32:27.786Z,9.77
2023-03-22T03:35:37.709Z,8.85
2023-03-22T03:38:45.179Z,9.18
2023-03-22T03:41:52.513Z,8.85
2023-03-22T03:44:57.305Z,11.07
2023-03-22T03:48:05.112Z,9.20
2023-03-22T03:51:08.919Z,8.73
2023-03-22T03:54:12.083Z,9.32
2023-03-22T03:57:17.492Z,8.98
2023-03-22T04:00:20.932Z,8.68
2023-03-22T04:03:50.674Z,8.30
2023-03-22T04:07:07.568Z,8.20
2023-03-22T04:10:13.129Z,9.27
2023-03-22T04:13:18.319Z,7.35
2023-03-22T04:16:21.416Z,9.82
2023-03-22T04:19:25.056Z,9.68
2023-03-22T04:22:28.155Z,9.02
2023-03-22T04:25:33.913Z,8.52
2023-03-22T04:28:45.409Z,9.02
2023-03-22T04:31:48.847Z,8.23
2023-03-22T04:35:01.666Z,8.38
2023-03-22T04:38:04.914Z,7.93
2023-03-22T04:41:09.372Z,8.63
2023-03-22T04:44:18.802Z,7.82
2023-03-22T04:47:26.096Z,7.68
2023-03-22T04:50:29.249Z,7.85
2023-03-22T04:53:38.976Z,7.72
2023-03-22T04:56:43.058Z,7.15
2023-03-22T04:59:47.567Z,7.32
2023-03-22T05:02:50.783Z,8.75
2023-03-22T05:06:03.466Z,8.52
2023-03-22T05:09:16.576Z,7.45
2023-03-22T05:12:19.832Z,8.65
2023-03-22T05:15:44.471Z,7.90
2023-03-22T05:18:54.340Z,7.63
2023-03-22T05:22:01.848Z,7.45
2023-03-22T05:25:23.039Z,8.52
2023-03-22T05:28:28.487Z,7.68
2023-03-22T05:31:53.079Z,8.55
2023-03-22T05:34:56.874Z,7.65
2023-03-22T05:38:11.777Z,7.80
2023-03-22T05:41:20.384Z,7.35
2023-03-22T05:44:23.624Z,7.75
2023-03-22T05:47:43.819Z,6.95
2023-03-22T05:50:50.177Z,7.22
2023-03-22T05:53:54.533Z,7.25
2023-03-22T05:57:01.862Z,6.97
2023-03-22T06:00:10.439Z,6.95
2023-03-22T06:03:18.303Z,7.85
2023-03-22T06:06:29.282Z,7.28
2023-03-22T06:09:52.555Z,8.30
2023-03-22T06:12:58.956Z,11.52
2023-03-22T06:16:07.143Z,9.70
2023-03-22T06:19:11.539Z,9.52
2023-03-22T06:22:14.851Z,7.65
2023-03-22T06:25:19.079Z,7.68
2023-03-22T06:28:23.281Z,6.90
2023-03-22T06:31:29.600Z,8.40
2023-03-22T06:34:40.480Z,8.55
2023-03-22T06:37:44.974Z,6.43
2023-03-22T06:40:47.958Z,9.57
2023-03-22T06:43:50.902Z,6.07
2023-03-22T06:47:11.975Z,7.30
2023-03-22T06:50:22.452Z,8.80
2023-03-22T06:53:46.397Z,13.98
2023-03-22T06:56:49.612Z,6.95
2023-03-22T06:59:52.801Z,6.75
2023-03-22T07:02:55.791Z,11.50
2023-03-22T07:06:12.577Z,6.85
2023-03-22T07:09:19.434Z,11.93
2023-03-22T07:12:24.980Z,12.52
2023-03-22T07:15:28.630Z,9.40
2023-03-22T07:18:38.572Z,8.70
2023-03-22T07:21:42.894Z,7.30
2023-03-22T07:24:56.702Z,11.43
2023-03-22T07:28:02.061Z,8.73
2023-03-22T07:31:09.965Z,12.43
2023-03-22T07:34:22.198Z,7.55
2023-03-22T07:37:38.150Z,10.55
2023-03-22T07:40:46.711Z,11.85
2023-03-22T07:43:55.406Z,7.78
2023-03-22T07:46:59.834Z,9.38
2023-03-22T07:50:11.790Z,7.15
2023-03-22T07:53:16.272Z,7.95
2023-03-22T07:56:21.037Z,8.02
2023-03-22T07:59:24.973Z,8.60
2023-03-22T08:02:28.206Z,13.70
2023-03-22T08:05:33.573Z,10.95
2023-03-22T08:08:40.170Z,8.18
2023-03-22T08:11:43.152Z,7.85
2023-03-22T08:14:50.511Z,9.20
2023-03-22T08:17:59.097Z,7.65
2023-03-22T08:21:10.559Z,10.85
2023-03-22T08:24:16.355Z,7.10
2023-03-22T08:27:37.938Z,7.53
2023-03-22T08:30:41.403Z,6.40
2023-03-22T08:33:45.153Z,10.25
2023-03-22T08:36:49.043Z,7.63
2023-03-22T08:39:53.398Z,6.18
2023-03-22T08:42:56.352Z,5.03
2023-03-22T08:45:59.771Z,7.53
2023-03-22T08:49:03.620Z,11.07
2023-03-22T08:52:14.440Z,6.20
2023-03-22T08:55:35.408Z,8.18
2023-03-22T08:58:48.013Z,9.60
2023-03-22T09:02:03.864Z,13.15
2023-03-22T09:05:08.102Z,12.27
2023-03-22T09:08:18.443Z,9.10
2023-03-22T09:11:25.561Z,7.13
2023-03-22T09:14:28.722Z,6.90
2023-03-22T09:17:31.818Z,7.65
2023-03-22T09:20:35.053Z,7.20
2023-03-22T09:23:40.203Z,6.85
2023-03-22T09:26:46.030Z,8.25
2023-03-22T09:29:53.046Z,7.15
2023-03-22T09:32:56.179Z,4.75
2023-03-22T09:35:59.646Z,8.90
2023-03-22T09:39:06.676Z,4.90
2023-03-22T09:42:26.674Z,4.38
2023-03-22T09:45:38.556Z,3.80
2023-03-22T09:48:44.242Z,5.13
2023-03-22T09:51:48.732Z,6.30
2023-03-22T09:54:53.240Z,3.95
2023-03-22T09:58:06.256Z,5.53
2023-03-22T10:01:20.727Z,4.40
2023-03-22T10:04:41.653Z,7.00
2023-03-22T10:08:00.558Z,4.45
2023-03-22T10:11:03.885Z,5.00
2023-03-22T10:14:23.534Z,7.07
2023-03-22T10:17:29.217Z,5.40
2023-03-22T10:20:40.493Z,6.65
2023-03-22T10:23:48.536Z,5.65
2023-03-22T10:26:52.945Z,5.28
2023-03-22T10:30:02.399Z,3.78
2023-03-22T10:33:13.594Z,4.55
2023-03-22T10:36:18.377Z,5.07
2023-03-22T10:39:30.629Z,4.78
2023-03-22T10:42:37.777Z,4.20
2023-03-22T10:45:43.460Z,5.55
2023-03-22T10:48:49.061Z,3.53
2023-03-22T10:51:56.685Z,4.57
2023-03-22T10:55:03.686Z,5.03
2023-03-22T10:58:14.867Z,7.82
2023-03-22T11:01:27.371Z,3.88
2023-03-22T11:04:33.436Z,3.28
2023-03-22T11:07:38.759Z,5.47
2023-03-22T11:10:41.794Z,5.30
2023-03-22T11:13:50.490Z,5.65
2023-03-22T11:16:58.848Z,4.20
2023-03-22T11:20:07.824Z,3.72
2023-03-22T11:23:13.986Z,4.38
2023-03-22T11:26:28.210Z,4.25
2023-03-22T11:29:41.141Z,5.28
2023-03-22T11:32:45.500Z,5.78
2023-03-22T11:35:54.829Z,2.78
2023-03-22T11:38:59.948Z,3.50
2023-03-22T11:42:06.697Z,3.65
2023-03-22T11:45:15.913Z,6.20
2023-03-22T11:48:24.147Z,5.30
2023-03-22T11:51:30.950Z,4.53
2023-03-22T11:54:38.101Z,3.10
2023-03-22T11:57:41.082Z,3.92
2023-03-22T12:00:44.144Z,4.25
2023-03-22T12:03:55.967Z,5.10
2023-03-22T12:07:01.407Z,3.80
2023-03-22T12:10:07.914Z,3.97
2023-03-22T12:13:18.979Z,4.38
2023-03-22T12:16:25.809Z,4.15
2023-03-22T12:19:45.533Z,3.30
2023-03-22T12:22:52.748Z,3.72
2023-03-22T12:26:01.304Z,3.63
2023-03-22T12:29:08.283Z,3.20
2023-03-22T12:32:18.857Z,3.33
2023-03-22T12:35:26.426Z,3.65
2023-03-22T12:38:39.655Z,3.42
2023-03-22T12:41:46.939Z,2.60
2023-03-22T12:45:02.627Z,5.20
2023-03-22T12:48:15.006Z,4.57
2023-03-22T12:51:19.572Z,4.45
2023-03-22T12:54:25.183Z,2.65
2023-03-22T12:57:28.801Z,2.88
2023-03-22T13:00:37.794Z,3.75
2023-03-22T13:03:47.327Z,2.78
2023-03-22T13:07:08.693Z,4.43
2023-03-22T13:10:48.759Z,2.78
2023-03-22T13:13:51.750Z,2.67
2023-03-22T13:17:00.248Z,3.28
2023-03-22T13:20:25.644Z,3.53
2023-03-22T13:23:30.023Z,4.47
2023-03-22T13:26:38.276Z,4.03
2023-03-22T13:29:41.930Z,2.70
2023-03-22T13:32:54.604Z,3.00
2023-03-22T13:36:00.213Z,4.82
2023-03-22T13:39:12.329Z,4.95
2023-03-22T13:42:21.161Z,2.20
2023-03-22T13:45:32.406Z,2.90
2023-03-22T13:48:52.258Z,3.22
2023-03-22T13:51:58.347Z,3.92
2023-03-22T13:55:02.934Z,5.43
2023-03-22T13:58:10.090Z,2.47
2023-03-22T14:01:17.257Z,3.40
2023-03-22T14:04:26.765Z,4.75
2023-03-22T14:07:33.924Z,3.97
2023-03-22T14:10:44.380Z,2.60
2023-03-22T14:13:52.419Z,2.40
2023-03-22T14:17:02.823Z,4.20
2023-03-22T14:20:10.522Z,4.10
